sensor_id;sensor_type;location;lat;lon;timestamp;temperature;humidity
12520;DHT22;6325;49.540;8.364;2022-07-05T00:00:24;19.60;97.10
12520;DHT22;6325;49.540;8.364;2022-07-05T00:02:50;19.50;97.20
12520;DHT22;6325;49.540;8.364;2022-07-05T00:05:17;19.50;97.30
12520;DHT22;6325;49.540;8.364;2022-07-05T00:07:44;19.60;98.00
12520;DHT22;6325;49.540;8.364;2022-07-05T00:10:11;20.10;98.20
12520;DHT22;6325;49.540;8.364;2022-07-05T00:12:38;19.20;98.60
12520;DHT22;6325;49.540;8.364;2022-07-05T00:15:05;19.70;99.00
12520;DHT22;6325;49.540;8.364;2022-07-05T00:17:33;19.30;99.40
12520;DHT22;6325;49.540;8.364;2022-07-05T00:20:00;19.30;99.60
12520;DHT22;6325;49.540;8.364;2022-07-05T00:22:27;19.20;99.90
12520;DHT22;6325;49.540;8.364;2022-07-05T00:24:54;19.20;99.90
12520;DHT22;6325;49.540;8.364;2022-07-05T00:27:21;19.10;99.90
12520;DHT22;6325;49.540;8.364;2022-07-05T00:29:48;19.20;99.90
12520;DHT22;6325;49.540;8.364;2022-07-05T00:32:15;19.20;99.90
12520;DHT22;6325;49.540;8.364;2022-07-05T00:34:43;19.10;99.90
12520;DHT22;6325;49.540;8.364;2022-07-05T00:37:10;19.10;99.90
12520;DHT22;6325;49.540;8.364;2022-07-05T00:39:36;19.60;99.90
12520;DHT22;6325;49.540;8.364;2022-07-05T00:42:04;18.90;99.90
12520;DHT22;6325;49.540;8.364;2022-07-05T00:44:33;19.60;99.90
12520;DHT22;6325;49.540;8.364;2022-07-05T00:47:01;19.10;99.90
12520;DHT22;6325;49.540;8.364;2022-07-05T00:49:29;19.00;99.90
12520;DHT22;6325;49.540;8.364;2022-07-05T00:51:58;19.10;99.90
12520;DHT22;6325;49.540;8.364;2022-07-05T00:54:25;19.00;99.90
12520;DHT22;6325;49.540;8.364;2022-07-05T00:56:52;19.00;99.90
12520;DHT22;6325;49.540;8.364;2022-07-05T00:59:19;19.00;99.90
12520;DHT22;6325;49.540;8.364;2022-07-05T01:01:46;18.90;99.90
12520;DHT22;6325;49.540;8.364;2022-07-05T01:04:13;19.10;99.90
12520;DHT22;6325;49.540;8.364;2022-07-05T01:06:42;18.90;99.90
12520;DHT22;6325;49.540;8.364;2022-07-05T01:09:12;19.00;99.90
12520;DHT22;6325;49.540;8.364;2022-07-05T01:11:39;18.70;99.90
12520;DHT22;6325;49.540;8.364;2022-07-05T01:14:08;18.90;99.90
12520;DHT22;6325;49.540;8.364;2022-07-05T01:16:37;18.80;99.90
12520;DHT22;6325;49.540;8.364;2022-07-05T01:19:05;18.80;99.90
12520;DHT22;6325;49.540;8.364;2022-07-05T01:21:33;18.80;99.90
12520;DHT22;6325;49.540;8.364;2022-07-05T01:24:05;18.80;99.90
12520;DHT22;6325;49.540;8.364;2022-07-05T01:26:32;18.50;99.90
12520;DHT22;6325;49.540;8.364;2022-07-05T01:29:00;18.80;99.90
12520;DHT22;6325;49.540;8.364;2022-07-05T01:31:26;18.30;99.90
12520;DHT22;6325;49.540;8.364;2022-07-05T01:33:53;19.00;99.90
12520;DHT22;6325;49.540;8.364;2022-07-05T01:36:20;18.60;99.90
12520;DHT22;6325;49.540;8.364;2022-07-05T01:38:48;18.60;99.90
12520;DHT22;6325;49.540;8.364;2022-07-05T01:41:16;18.30;99.90
12520;DHT22;6325;49.540;8.364;2022-07-05T01:43:43;18.60;99.90
12520;DHT22;6325;49.540;8.364;2022-07-05T01:46:11;18.80;99.90
12520;DHT22;6325;49.540;8.364;2022-07-05T01:48:39;18.30;99.90
12520;DHT22;6325;49.540;8.364;2022-07-05T01:51:10;18.70;99.90
12520;DHT22;6325;49.540;8.364;2022-07-05T01:53:41;18.30;99.90
12520;DHT22;6325;49.540;8.364;2022-07-05T01:56:09;18.90;99.90
12520;DHT22;6325;49.540;8.364;2022-07-05T01:58:38;18.70;99.90
12520;DHT22;6325;49.540;8.364;2022-07-05T02:01:05;18.40;99.90
12520;DHT22;6325;49.540;8.364;2022-07-05T02:03:32;18.20;99.90
12520;DHT22;6325;49.540;8.364;2022-07-05T02:05:59;18.00;99.90
12520;DHT22;6325;49.540;8.364;2022-07-05T02:08:29;18.40;99.90
12520;DHT22;6325;49.540;8.364;2022-07-05T02:10:56;18.80;99.90
12520;DHT22;6325;49.540;8.364;2022-07-05T02:13:23;18.40;99.90
12520;DHT22;6325;49.540;8.364;2022-07-05T02:15:52;18.20;99.90
12520;DHT22;6325;49.540;8.364;2022-07-05T02:18:18;18.60;99.90
12520;DHT22;6325;49.540;8.364;2022-07-05T02:20:45;18.00;99.90
12520;DHT22;6325;49.540;8.364;2022-07-05T02:23:12;17.80;99.90
12520;DHT22;6325;49.540;8.364;2022-07-05T02:25:39;18.10;99.90
12520;DHT22;6325;49.540;8.364;2022-07-05T02:28:06;17.80;99.90
12520;DHT22;6325;49.540;8.364;2022-07-05T02:30:33;17.80;99.90
12520;DHT22;6325;49.540;8.364;2022-07-05T02:33:01;18.00;99.90
12520;DHT22;6325;49.540;8.364;2022-07-05T02:35:27;18.10;99.90
12520;DHT22;6325;49.540;8.364;2022-07-05T02:37:54;18.00;99.90
12520;DHT22;6325;49.540;8.364;2022-07-05T02:40:21;18.00;99.90
12520;DHT22;6325;49.540;8.364;2022-07-05T02:42:48;18.10;99.90
12520;DHT22;6325;49.540;8.364;2022-07-05T02:45:15;17.90;99.90
12520;DHT22;6325;49.540;8.364;2022-07-05T02:47:42;17.70;99.90
12520;DHT22;6325;49.540;8.364;2022-07-05T02:50:11;18.00;99.90
12520;DHT22;6325;49.540;8.364;2022-07-05T02:52:38;17.70;99.90
12520;DHT22;6325;49.540;8.364;2022-07-05T02:55:05;17.70;99.90
12520;DHT22;6325;49.540;8.364;2022-07-05T02:57:32;17.70;99.90
12520;DHT22;6325;49.540;8.364;2022-07-05T02:59:59;17.60;99.90
12520;DHT22;6325;49.540;8.364;2022-07-05T03:02:26;18.00;99.90
12520;DHT22;6325;49.540;8.364;2022-07-05T03:04:53;17.80;99.90
12520;DHT22;6325;49.540;8.364;2022-07-05T03:07:21;17.50;99.90
12520;DHT22;6325;49.540;8.364;2022-07-05T03:09:48;17.50;99.90
12520;DHT22;6325;49.540;8.364;2022-07-05T03:12:15;17.40;99.90
12520;DHT22;6325;49.540;8.364;2022-07-05T03:14:41;17.50;99.90
12520;DHT22;6325;49.540;8.364;2022-07-05T03:17:08;17.40;99.90
12520;DHT22;6325;49.540;8.364;2022-07-05T03:19:35;17.40;99.90
12520;DHT22;6325;49.540;8.364;2022-07-05T03:22:03;17.40;99.90
12520;DHT22;6325;49.540;8.364;2022-07-05T03:24:31;17.30;99.90
12520;DHT22;6325;49.540;8.364;2022-07-05T03:26:58;17.40;99.90
12520;DHT22;6325;49.540;8.364;2022-07-05T03:29:24;17.30;99.90
12520;DHT22;6325;49.540;8.364;2022-07-05T03:31:52;17.30;99.90
12520;DHT22;6325;49.540;8.364;2022-07-05T03:34:19;16.90;99.90
12520;DHT22;6325;49.540;8.364;2022-07-05T03:36:46;17.30;99.90
12520;DHT22;6325;49.540;8.364;2022-07-05T03:39:13;17.10;99.90
12520;DHT22;6325;49.540;8.364;2022-07-05T03:41:41;17.30;99.90
12520;DHT22;6325;49.540;8.364;2022-07-05T03:44:07;17.40;99.90
12520;DHT22;6325;49.540;8.364;2022-07-05T03:46:34;17.20;99.90
12520;DHT22;6325;49.540;8.364;2022-07-05T03:49:01;16.90;99.90
12520;DHT22;6325;49.540;8.364;2022-07-05T03:51:28;17.20;99.90
12520;DHT22;6325;49.540;8.364;2022-07-05T03:53:55;16.60;99.90
12520;DHT22;6325;49.540;8.364;2022-07-05T03:56:22;17.20;99.90
12520;DHT22;6325;49.540;8.364;2022-07-05T03:58:50;16.80;99.90
12520;DHT22;6325;49.540;8.364;2022-07-05T04:01:17;17.20;99.90
12520;DHT22;6325;49.540;8.364;2022-07-05T04:03:44;17.10;99.90
12520;DHT22;6325;49.540;8.364;2022-07-05T04:06:12;16.70;99.90
12520;DHT22;6325;49.540;8.364;2022-07-05T04:08:39;17.10;99.90
12520;DHT22;6325;49.540;8.364;2022-07-05T04:11:06;17.60;99.90
12520;DHT22;6325;49.540;8.364;2022-07-05T04:13:33;16.40;99.90
12520;DHT22;6325;49.540;8.364;2022-07-05T04:16:01;17.10;99.90
12520;DHT22;6325;49.540;8.364;2022-07-05T04:18:28;17.00;99.90
12520;DHT22;6325;49.540;8.364;2022-07-05T04:20:55;17.10;99.90
12520;DHT22;6325;49.540;8.364;2022-07-05T04:23:22;17.10;99.90
12520;DHT22;6325;49.540;8.364;2022-07-05T04:25:49;17.30;99.90
12520;DHT22;6325;49.540;8.364;2022-07-05T04:28:15;17.10;99.90
12520;DHT22;6325;49.540;8.364;2022-07-05T04:30:42;17.10;99.90
12520;DHT22;6325;49.540;8.364;2022-07-05T04:33:10;17.10;99.90
12520;DHT22;6325;49.540;8.364;2022-07-05T04:35:37;17.10;99.90
12520;DHT22;6325;49.540;8.364;2022-07-05T04:38:04;17.10;99.90
12520;DHT22;6325;49.540;8.364;2022-07-05T04:40:31;17.10;99.90
12520;DHT22;6325;49.540;8.364;2022-07-05T04:42:58;17.20;99.90
12520;DHT22;6325;49.540;8.364;2022-07-05T04:45:25;17.00;99.90
12520;DHT22;6325;49.540;8.364;2022-07-05T04:47:52;17.30;99.90
12520;DHT22;6325;49.540;8.364;2022-07-05T04:50:22;17.30;99.90
12520;DHT22;6325;49.540;8.364;2022-07-05T04:52:49;17.40;99.90
12520;DHT22;6325;49.540;8.364;2022-07-05T04:55:16;17.70;99.90
12520;DHT22;6325;49.540;8.364;2022-07-05T04:57:42;18.00;99.90
12520;DHT22;6325;49.540;8.364;2022-07-05T05:00:13;17.50;99.90
12520;DHT22;6325;49.540;8.364;2022-07-05T05:02:40;17.60;99.90
12520;DHT22;6325;49.540;8.364;2022-07-05T05:05:08;17.50;99.90
12520;DHT22;6325;49.540;8.364;2022-07-05T05:07:36;17.60;99.90
12520;DHT22;6325;49.540;8.364;2022-07-05T05:10:06;17.40;99.90
12520;DHT22;6325;49.540;8.364;2022-07-05T05:12:33;17.70;99.90
12520;DHT22;6325;49.540;8.364;2022-07-05T05:15:00;17.90;99.90
12520;DHT22;6325;49.540;8.364;2022-07-05T05:17:34;17.30;99.90
12520;DHT22;6325;49.540;8.364;2022-07-05T05:20:02;17.80;99.90
12520;DHT22;6325;49.540;8.364;2022-07-05T05:22:29;17.40;99.90
12520;DHT22;6325;49.540;8.364;2022-07-05T05:24:57;17.70;99.90
12520;DHT22;6325;49.540;8.364;2022-07-05T05:27:24;17.90;99.90
12520;DHT22;6325;49.540;8.364;2022-07-05T05:29:51;18.20;99.90
12520;DHT22;6325;49.540;8.364;2022-07-05T05:32:18;17.70;99.90
12520;DHT22;6325;49.540;8.364;2022-07-05T05:34:45;17.90;99.90
12520;DHT22;6325;49.540;8.364;2022-07-05T05:37:11;18.20;99.90
12520;DHT22;6325;49.540;8.364;2022-07-05T05:39:38;17.90;99.90
12520;DHT22;6325;49.540;8.364;2022-07-05T05:42:07;17.80;99.90
12520;DHT22;6325;49.540;8.364;2022-07-05T05:44:34;18.30;99.90
12520;DHT22;6325;49.540;8.364;2022-07-05T05:47:01;18.10;99.90
12520;DHT22;6325;49.540;8.364;2022-07-05T05:49:28;18.50;99.90
12520;DHT22;6325;49.540;8.364;2022-07-05T05:51:55;18.00;99.90
12520;DHT22;6325;49.540;8.364;2022-07-05T05:54:22;17.90;99.90
12520;DHT22;6325;49.540;8.364;2022-07-05T05:56:49;18.40;99.90
12520;DHT22;6325;49.540;8.364;2022-07-05T05:59:17;18.20;99.90
12520;DHT22;6325;49.540;8.364;2022-07-05T06:01:44;18.20;99.90
12520;DHT22;6325;49.540;8.364;2022-07-05T06:04:11;18.70;99.90
12520;DHT22;6325;49.540;8.364;2022-07-05T06:06:38;18.80;99.90
12520;DHT22;6325;49.540;8.364;2022-07-05T06:09:05;19.30;99.90
12520;DHT22;6325;49.540;8.364;2022-07-05T06:11:31;18.80;99.90
12520;DHT22;6325;49.540;8.364;2022-07-05T06:13:58;19.10;99.90
12520;DHT22;6325;49.540;8.364;2022-07-05T06:16:26;18.80;99.90
12520;DHT22;6325;49.540;8.364;2022-07-05T06:18:53;19.40;99.90
12520;DHT22;6325;49.540;8.364;2022-07-05T06:21:20;19.40;99.90
12520;DHT22;6325;49.540;8.364;2022-07-05T06:23:47;19.50;99.90
12520;DHT22;6325;49.540;8.364;2022-07-05T06:26:14;19.60;99.90
12520;DHT22;6325;49.540;8.364;2022-07-05T06:28:40;19.70;99.90
12520;DHT22;6325;49.540;8.364;2022-07-05T06:31:07;19.80;99.90
12520;DHT22;6325;49.540;8.364;2022-07-05T06:33:35;19.70;99.90
12520;DHT22;6325;49.540;8.364;2022-07-05T06:36:02;19.90;99.90
12520;DHT22;6325;49.540;8.364;2022-07-05T06:38:29;19.70;99.90
12520;DHT22;6325;49.540;8.364;2022-07-05T06:40:56;20.10;99.90
12520;DHT22;6325;49.540;8.364;2022-07-05T06:43:25;20.20;99.90
12520;DHT22;6325;49.540;8.364;2022-07-05T06:45:52;19.90;99.90
12520;DHT22;6325;49.540;8.364;2022-07-05T06:48:19;20.70;99.90
12520;DHT22;6325;49.540;8.364;2022-07-05T06:50:47;20.10;99.90
12520;DHT22;6325;49.540;8.364;2022-07-05T06:53:14;20.70;99.90
12520;DHT22;6325;49.540;8.364;2022-07-05T06:55:41;20.50;99.90
12520;DHT22;6325;49.540;8.364;2022-07-05T06:58:10;20.60;99.90
12520;DHT22;6325;49.540;8.364;2022-07-05T07:00:38;21.10;99.90
12520;DHT22;6325;49.540;8.364;2022-07-05T07:03:05;20.70;99.90
12520;DHT22;6325;49.540;8.364;2022-07-05T07:05:31;20.80;99.90
12520;DHT22;6325;49.540;8.364;2022-07-05T07:08:00;21.00;99.90
12520;DHT22;6325;49.540;8.364;2022-07-05T07:10:44;20.90;99.90
12520;DHT22;6325;49.540;8.364;2022-07-05T07:13:11;21.40;99.90
12520;DHT22;6325;49.540;8.364;2022-07-05T07:15:38;21.20;99.90
12520;DHT22;6325;49.540;8.364;2022-07-05T07:18:06;21.20;99.90
12520;DHT22;6325;49.540;8.364;2022-07-05T07:20:33;21.40;99.90
12520;DHT22;6325;49.540;8.364;2022-07-05T07:23:01;21.30;99.90
12520;DHT22;6325;49.540;8.364;2022-07-05T07:25:28;21.20;99.90
12520;DHT22;6325;49.540;8.364;2022-07-05T07:27:55;21.60;99.90
12520;DHT22;6325;49.540;8.364;2022-07-05T07:30:23;21.80;99.90
12520;DHT22;6325;49.540;8.364;2022-07-05T07:32:51;21.80;99.90
12520;DHT22;6325;49.540;8.364;2022-07-05T07:35:18;21.80;99.90
12520;DHT22;6325;49.540;8.364;2022-07-05T07:37:45;22.20;99.90
12520;DHT22;6325;49.540;8.364;2022-07-05T07:40:13;22.20;99.90
12520;DHT22;6325;49.540;8.364;2022-07-05T07:42:40;22.40;99.90
12520;DHT22;6325;49.540;8.364;2022-07-05T07:45:08;22.30;99.90
12520;DHT22;6325;49.540;8.364;2022-07-05T07:47:35;22.40;99.90
12520;DHT22;6325;49.540;8.364;2022-07-05T07:50:03;22.30;99.90
12520;DHT22;6325;49.540;8.364;2022-07-05T07:52:31;22.70;99.90
12520;DHT22;6325;49.540;8.364;2022-07-05T07:54:59;22.30;99.90
12520;DHT22;6325;49.540;8.364;2022-07-05T07:57:28;22.90;99.90
12520;DHT22;6325;49.540;8.364;2022-07-05T07:59:55;22.90;99.90
12520;DHT22;6325;49.540;8.364;2022-07-05T08:02:21;23.00;99.90
12520;DHT22;6325;49.540;8.364;2022-07-05T08:04:49;22.80;99.90
12520;DHT22;6325;49.540;8.364;2022-07-05T08:07:16;23.10;99.90
12520;DHT22;6325;49.540;8.364;2022-07-05T08:09:44;23.20;99.90
12520;DHT22;6325;49.540;8.364;2022-07-05T08:12:11;23.60;99.90
12520;DHT22;6325;49.540;8.364;2022-07-05T08:14:39;23.90;99.90
12520;DHT22;6325;49.540;8.364;2022-07-05T08:17:06;23.80;99.90
12520;DHT22;6325;49.540;8.364;2022-07-05T08:19:34;23.50;99.90
12520;DHT22;6325;49.540;8.364;2022-07-05T08:22:19;23.40;99.90
12520;DHT22;6325;49.540;8.364;2022-07-05T08:24:46;23.70;99.90
12520;DHT22;6325;49.540;8.364;2022-07-05T08:27:13;23.70;99.90
12520;DHT22;6325;49.540;8.364;2022-07-05T08:29:41;23.50;99.90
12520;DHT22;6325;49.540;8.364;2022-07-05T08:32:09;23.50;99.80
12520;DHT22;6325;49.540;8.364;2022-07-05T08:34:36;23.80;99.20
12520;DHT22;6325;49.540;8.364;2022-07-05T08:37:03;24.20;99.10
12520;DHT22;6325;49.540;8.364;2022-07-05T08:39:30;24.30;98.20
12520;DHT22;6325;49.540;8.364;2022-07-05T08:41:58;24.40;97.50
12520;DHT22;6325;49.540;8.364;2022-07-05T08:44:28;24.30;98.10
12520;DHT22;6325;49.540;8.364;2022-07-05T08:46:57;24.90;99.30
12520;DHT22;6325;49.540;8.364;2022-07-05T08:49:26;24.80;99.10
12520;DHT22;6325;49.540;8.364;2022-07-05T08:51:54;24.90;98.60
12520;DHT22;6325;49.540;8.364;2022-07-05T08:54:22;24.80;96.90
12520;DHT22;6325;49.540;8.364;2022-07-05T08:56:50;24.70;96.70
12520;DHT22;6325;49.540;8.364;2022-07-05T08:59:17;25.10;96.80
12520;DHT22;6325;49.540;8.364;2022-07-05T09:01:45;25.10;96.30
12520;DHT22;6325;49.540;8.364;2022-07-05T09:04:16;25.20;96.20
12520;DHT22;6325;49.540;8.364;2022-07-05T09:06:47;25.00;95.40
12520;DHT22;6325;49.540;8.364;2022-07-05T09:09:17;25.40;95.10
12520;DHT22;6325;49.540;8.364;2022-07-05T09:11:45;25.20;94.20
12520;DHT22;6325;49.540;8.364;2022-07-05T09:14:20;25.20;94.20
12520;DHT22;6325;49.540;8.364;2022-07-05T09:16:47;25.60;93.90
12520;DHT22;6325;49.540;8.364;2022-07-05T09:19:16;25.80;93.70
12520;DHT22;6325;49.540;8.364;2022-07-05T09:21:43;26.20;92.60
12520;DHT22;6325;49.540;8.364;2022-07-05T09:24:12;25.50;91.10
12520;DHT22;6325;49.540;8.364;2022-07-05T09:26:40;25.50;91.30
12520;DHT22;6325;49.540;8.364;2022-07-05T09:29:09;25.60;91.90
12520;DHT22;6325;49.540;8.364;2022-07-05T09:31:38;25.90;90.70
12520;DHT22;6325;49.540;8.364;2022-07-05T09:34:06;26.00;91.10
12520;DHT22;6325;49.540;8.364;2022-07-05T09:36:53;25.80;91.60
12520;DHT22;6325;49.540;8.364;2022-07-05T09:39:38;26.00;90.40
12520;DHT22;6325;49.540;8.364;2022-07-05T09:42:13;26.40;90.40
12520;DHT22;6325;49.540;8.364;2022-07-05T09:44:43;26.20;90.10
12520;DHT22;6325;49.540;8.364;2022-07-05T09:47:12;26.20;88.40
12520;DHT22;6325;49.540;8.364;2022-07-05T09:49:41;26.40;90.10
12520;DHT22;6325;49.540;8.364;2022-07-05T09:52:11;26.80;89.90
12520;DHT22;6325;49.540;8.364;2022-07-05T09:55:01;26.70;90.10
12520;DHT22;6325;49.540;8.364;2022-07-05T09:57:28;26.90;87.50
12520;DHT22;6325;49.540;8.364;2022-07-05T09:59:58;26.90;87.00
12520;DHT22;6325;49.540;8.364;2022-07-05T10:02:34;27.30;88.10
12520;DHT22;6325;49.540;8.364;2022-07-05T10:05:11;27.60;84.80
12520;DHT22;6325;49.540;8.364;2022-07-05T10:07:42;27.70;82.80
12520;DHT22;6325;49.540;8.364;2022-07-05T10:10:12;27.90;84.90
12520;DHT22;6325;49.540;8.364;2022-07-05T10:12:39;27.60;86.40
12520;DHT22;6325;49.540;8.364;2022-07-05T10:15:09;27.30;83.40
12520;DHT22;6325;49.540;8.364;2022-07-05T10:17:37;26.70;84.10
12520;DHT22;6325;49.540;8.364;2022-07-05T10:20:12;26.80;83.30
12520;DHT22;6325;49.540;8.364;2022-07-05T10:22:41;26.90;84.70
12520;DHT22;6325;49.540;8.364;2022-07-05T10:25:09;26.70;82.30
12520;DHT22;6325;49.540;8.364;2022-07-05T10:27:37;27.00;81.70
12520;DHT22;6325;49.540;8.364;2022-07-05T10:30:05;27.10;83.10
12520;DHT22;6325;49.540;8.364;2022-07-05T10:32:33;26.90;84.00
12520;DHT22;6325;49.540;8.364;2022-07-05T10:35:01;26.50;81.50
12520;DHT22;6325;49.540;8.364;2022-07-05T10:37:32;26.90;81.20
12520;DHT22;6325;49.540;8.364;2022-07-05T10:40:02;26.70;80.30
12520;DHT22;6325;49.540;8.364;2022-07-05T10:42:33;27.00;79.40
12520;DHT22;6325;49.540;8.364;2022-07-05T10:45:02;28.00;81.80
12520;DHT22;6325;49.540;8.364;2022-07-05T10:47:29;27.90;80.80
12520;DHT22;6325;49.540;8.364;2022-07-05T10:50:03;28.50;80.20
12520;DHT22;6325;49.540;8.364;2022-07-05T10:52:31;28.40;78.00
12520;DHT22;6325;49.540;8.364;2022-07-05T10:55:21;28.60;78.00
12520;DHT22;6325;49.540;8.364;2022-07-05T10:58:25;28.70;75.20
12520;DHT22;6325;49.540;8.364;2022-07-05T11:01:31;28.80;72.80
12520;DHT22;6325;49.540;8.364;2022-07-05T11:04:11;29.10;71.30
12520;DHT22;6325;49.540;8.364;2022-07-05T11:06:41;28.90;70.30
12520;DHT22;6325;49.540;8.364;2022-07-05T11:09:16;28.80;69.10
12520;DHT22;6325;49.540;8.364;2022-07-05T11:11:46;28.70;69.20
12520;DHT22;6325;49.540;8.364;2022-07-05T11:14:35;28.00;68.60
12520;DHT22;6325;49.540;8.364;2022-07-05T11:17:23;27.50;67.30
12520;DHT22;6325;49.540;8.364;2022-07-05T11:20:07;28.20;67.90
12520;DHT22;6325;49.540;8.364;2022-07-05T11:22:35;28.40;69.10
12520;DHT22;6325;49.540;8.364;2022-07-05T11:25:07;28.40;69.30
12520;DHT22;6325;49.540;8.364;2022-07-05T11:27:36;28.60;68.20
12520;DHT22;6325;49.540;8.364;2022-07-05T11:30:25;28.80;68.40
12520;DHT22;6325;49.540;8.364;2022-07-05T11:32:52;28.70;67.00
12520;DHT22;6325;49.540;8.364;2022-07-05T11:35:19;29.00;65.30
12520;DHT22;6325;49.540;8.364;2022-07-05T11:38:02;29.10;64.50
12520;DHT22;6325;49.540;8.364;2022-07-05T11:40:34;29.20;62.30
12520;DHT22;6325;49.540;8.364;2022-07-05T11:43:02;29.30;61.50
12520;DHT22;6325;49.540;8.364;2022-07-05T11:45:31;28.90;62.70
12520;DHT22;6325;49.540;8.364;2022-07-05T11:47:58;29.40;64.70
12520;DHT22;6325;49.540;8.364;2022-07-05T11:50:29;29.70;64.30
12520;DHT22;6325;49.540;8.364;2022-07-05T11:52:57;29.70;62.10
12520;DHT22;6325;49.540;8.364;2022-07-05T11:55:25;29.90;61.30
12520;DHT22;6325;49.540;8.364;2022-07-05T11:57:54;30.40;62.30
12520;DHT22;6325;49.540;8.364;2022-07-05T12:00:29;29.70;60.90
12520;DHT22;6325;49.540;8.364;2022-07-05T12:02:58;30.10;62.50
12520;DHT22;6325;49.540;8.364;2022-07-05T12:05:30;30.20;62.90
12520;DHT22;6325;49.540;8.364;2022-07-05T12:10:25;30.50;59.20
12520;DHT22;6325;49.540;8.364;2022-07-05T12:13:09;30.60;57.60
12520;DHT22;6325;49.540;8.364;2022-07-05T12:15:37;30.50;57.50
12520;DHT22;6325;49.540;8.364;2022-07-05T12:18:06;30.30;56.90
12520;DHT22;6325;49.540;8.364;2022-07-05T12:20:36;30.70;58.90
12520;DHT22;6325;49.540;8.364;2022-07-05T12:23:03;30.70;56.10
12520;DHT22;6325;49.540;8.364;2022-07-05T12:25:32;30.90;56.90
12520;DHT22;6325;49.540;8.364;2022-07-05T12:28:00;31.30;57.30
12520;DHT22;6325;49.540;8.364;2022-07-05T12:30:30;31.20;56.30
12520;DHT22;6325;49.540;8.364;2022-07-05T12:32:58;31.40;56.50
12520;DHT22;6325;49.540;8.364;2022-07-05T12:35:34;31.00;56.50
12520;DHT22;6325;49.540;8.364;2022-07-05T12:38:07;30.70;56.80
12520;DHT22;6325;49.540;8.364;2022-07-05T12:40:34;31.20;56.30
12520;DHT22;6325;49.540;8.364;2022-07-05T12:43:03;31.30;56.50
12520;DHT22;6325;49.540;8.364;2022-07-05T12:45:31;31.30;57.40
12520;DHT22;6325;49.540;8.364;2022-07-05T12:48:00;30.30;56.70
12520;DHT22;6325;49.540;8.364;2022-07-05T12:50:28;30.40;55.70
12520;DHT22;6325;49.540;8.364;2022-07-05T12:53:03;30.00;56.70
12520;DHT22;6325;49.540;8.364;2022-07-05T12:55:46;30.00;55.50
12520;DHT22;6325;49.540;8.364;2022-07-05T12:58:31;29.90;55.10
12520;DHT22;6325;49.540;8.364;2022-07-05T13:00:58;30.00;54.80
12520;DHT22;6325;49.540;8.364;2022-07-05T13:03:24;29.80;57.00
12520;DHT22;6325;49.540;8.364;2022-07-05T13:06:01;30.00;55.40
12520;DHT22;6325;49.540;8.364;2022-07-05T13:08:30;30.00;55.30
12520;DHT22;6325;49.540;8.364;2022-07-05T13:10:57;30.10;60.10
12520;DHT22;6325;49.540;8.364;2022-07-05T13:13:24;31.00;55.30
12520;DHT22;6325;49.540;8.364;2022-07-05T13:15:50;30.90;54.70
12520;DHT22;6325;49.540;8.364;2022-07-05T13:18:25;31.30;55.30
12520;DHT22;6325;49.540;8.364;2022-07-05T13:20:52;31.40;54.70
12520;DHT22;6325;49.540;8.364;2022-07-05T13:23:19;31.20;53.90
12520;DHT22;6325;49.540;8.364;2022-07-05T13:25:47;31.50;53.50
12520;DHT22;6325;49.540;8.364;2022-07-05T13:28:14;30.70;53.40
12520;DHT22;6325;49.540;8.364;2022-07-05T13:30:41;30.30;53.50
12520;DHT22;6325;49.540;8.364;2022-07-05T13:33:07;30.20;54.30
12520;DHT22;6325;49.540;8.364;2022-07-05T13:35:34;29.90;54.60
12520;DHT22;6325;49.540;8.364;2022-07-05T13:38:01;30.20;54.50
12520;DHT22;6325;49.540;8.364;2022-07-05T13:40:28;29.50;54.90
12520;DHT22;6325;49.540;8.364;2022-07-05T13:42:56;29.60;54.50
12520;DHT22;6325;49.540;8.364;2022-07-05T13:45:23;29.40;54.70
12520;DHT22;6325;49.540;8.364;2022-07-05T13:47:50;29.60;56.10
12520;DHT22;6325;49.540;8.364;2022-07-05T13:50:17;29.50;55.20
12520;DHT22;6325;49.540;8.364;2022-07-05T13:52:58;29.70;54.70
12520;DHT22;6325;49.540;8.364;2022-07-05T13:55:25;30.20;54.70
12520;DHT22;6325;49.540;8.364;2022-07-05T13:57:52;30.90;54.30
12520;DHT22;6325;49.540;8.364;2022-07-05T14:00:21;31.20;55.70
12520;DHT22;6325;49.540;8.364;2022-07-05T14:02:48;31.70;55.40
12520;DHT22;6325;49.540;8.364;2022-07-05T14:05:15;32.00;54.10
12520;DHT22;6325;49.540;8.364;2022-07-05T14:07:44;32.30;53.10
12520;DHT22;6325;49.540;8.364;2022-07-05T14:10:10;32.40;54.40
12520;DHT22;6325;49.540;8.364;2022-07-05T14:12:37;32.40;54.20
12520;DHT22;6325;49.540;8.364;2022-07-05T14:15:05;31.80;52.60
12520;DHT22;6325;49.540;8.364;2022-07-05T14:17:33;31.90;52.40
12520;DHT22;6325;49.540;8.364;2022-07-05T14:20:00;31.20;52.00
12520;DHT22;6325;49.540;8.364;2022-07-05T14:22:27;31.10;52.40
12520;DHT22;6325;49.540;8.364;2022-07-05T14:24:53;31.00;51.40
12520;DHT22;6325;49.540;8.364;2022-07-05T14:27:20;31.40;52.50
12520;DHT22;6325;49.540;8.364;2022-07-05T14:29:47;31.60;52.00
12520;DHT22;6325;49.540;8.364;2022-07-05T14:32:13;31.40;51.50
12520;DHT22;6325;49.540;8.364;2022-07-05T14:34:42;31.60;51.10
12520;DHT22;6325;49.540;8.364;2022-07-05T14:37:08;31.00;51.40
12520;DHT22;6325;49.540;8.364;2022-07-05T14:39:35;31.10;52.60
12520;DHT22;6325;49.540;8.364;2022-07-05T14:42:03;30.10;51.90
12520;DHT22;6325;49.540;8.364;2022-07-05T14:44:30;30.00;54.20
12520;DHT22;6325;49.540;8.364;2022-07-05T14:46:57;30.00;52.10
12520;DHT22;6325;49.540;8.364;2022-07-05T14:49:24;29.70;51.90
12520;DHT22;6325;49.540;8.364;2022-07-05T14:51:52;29.50;52.90
12520;DHT22;6325;49.540;8.364;2022-07-05T14:54:19;30.00;54.60
12520;DHT22;6325;49.540;8.364;2022-07-05T14:56:46;30.60;55.20
12520;DHT22;6325;49.540;8.364;2022-07-05T14:59:15;31.00;51.50
12520;DHT22;6325;49.540;8.364;2022-07-05T15:01:41;30.90;50.60
12520;DHT22;6325;49.540;8.364;2022-07-05T15:04:08;30.90;51.30
12520;DHT22;6325;49.540;8.364;2022-07-05T15:06:35;30.80;50.70
12520;DHT22;6325;49.540;8.364;2022-07-05T15:09:03;30.00;50.50
12520;DHT22;6325;49.540;8.364;2022-07-05T15:11:30;30.20;51.30
12520;DHT22;6325;49.540;8.364;2022-07-05T15:13:57;29.80;50.80
12520;DHT22;6325;49.540;8.364;2022-07-05T15:16:26;29.30;50.80
12520;DHT22;6325;49.540;8.364;2022-07-05T15:18:52;29.40;50.90
12520;DHT22;6325;49.540;8.364;2022-07-05T15:21:19;29.10;51.10
12520;DHT22;6325;49.540;8.364;2022-07-05T15:23:46;29.20;51.30
12520;DHT22;6325;49.540;8.364;2022-07-05T15:26:14;29.10;52.80
12520;DHT22;6325;49.540;8.364;2022-07-05T15:28:41;29.60;53.10
12520;DHT22;6325;49.540;8.364;2022-07-05T15:31:08;28.90;53.10
12520;DHT22;6325;49.540;8.364;2022-07-05T15:33:35;28.90;53.40
12520;DHT22;6325;49.540;8.364;2022-07-05T15:36:02;28.80;52.30
12520;DHT22;6325;49.540;8.364;2022-07-05T15:38:28;29.00;53.60
12520;DHT22;6325;49.540;8.364;2022-07-05T15:40:56;29.10;53.20
12520;DHT22;6325;49.540;8.364;2022-07-05T15:43:25;29.60;53.10
12520;DHT22;6325;49.540;8.364;2022-07-05T15:45:53;29.20;52.60
12520;DHT22;6325;49.540;8.364;2022-07-05T15:48:20;29.60;53.30
12520;DHT22;6325;49.540;8.364;2022-07-05T15:50:48;29.70;53.00
12520;DHT22;6325;49.540;8.364;2022-07-05T15:53:14;30.50;53.80
12520;DHT22;6325;49.540;8.364;2022-07-05T15:55:41;31.20;50.80